createdAt,value
2023-12-29T00:01:34.610Z,5.38
2023-12-29T00:04:07.102Z,5.42
2023-12-29T00:06:49.893Z,5.45
2023-12-29T00:09:29.361Z,5.48
2023-12-29T00:12:01.398Z,5.53
2023-12-29T00:14:55.767Z,5.57
2023-12-29T00:17:27.799Z,5.60
2023-12-29T00:19:59.939Z,5.63
2023-12-29T00:22:31.813Z,5.64
2023-12-29T00:25:04.101Z,5.63
2023-12-29T00:27:37.806Z,5.61
2023-12-29T00:30:11.916Z,5.59
2023-12-29T00:32:44.092Z,5.56
2023-12-29T00:35:16.434Z,5.53
2023-12-29T00:37:48.873Z,5.50
2023-12-29T00:40:20.911Z,5.48
2023-12-29T00:42:52.935Z,5.51
2023-12-29T00:45:24.974Z,5.56
2023-12-29T00:47:59.556Z,5.58
2023-12-29T00:50:31.988Z,5.60
2023-12-29T00:53:03.920Z,5.59
2023-12-29T00:55:35.855Z,5.57
2023-12-29T00:58:08.538Z,5.54
2023-12-29T01:00:41.057Z,5.51
2023-12-29T01:03:13.215Z,5.49
2023-12-29T01:05:46.156Z,5.46
2023-12-29T01:08:18.056Z,5.45
2023-12-29T01:10:49.989Z,5.43
2023-12-29T01:13:22.299Z,5.41
2023-12-29T01:15:54.676Z,5.39
2023-12-29T01:18:26.892Z,5.40
2023-12-29T01:21:01.227Z,5.41
2023-12-29T01:23:34.409Z,5.41
2023-12-29T01:26:06.708Z,5.43
2023-12-29T01:28:38.837Z,5.45
2023-12-29T01:31:12.761Z,5.47
2023-12-29T01:33:44.843Z,5.48
2023-12-29T01:36:25.328Z,5.48
2023-12-29T01:38:58.388Z,5.45
2023-12-29T01:41:30.683Z,5.43
2023-12-29T01:44:24.291Z,5.40
2023-12-29T01:46:59.053Z,5.38
2023-12-29T01:49:31.930Z,5.40
2023-12-29T01:52:05.057Z,5.38
2023-12-29T01:54:39.522Z,5.34
2023-12-29T01:57:13.143Z,5.30
2023-12-29T01:59:46.405Z,5.26
2023-12-29T02:02:19.413Z,5.22
2023-12-29T02:04:51.517Z,5.21
2023-12-29T02:07:23.867Z,5.22
2023-12-29T02:09:56.869Z,5.24
2023-12-29T02:12:29.058Z,5.24
2023-12-29T02:15:01.169Z,5.26
2023-12-29T02:17:38.241Z,5.27
2023-12-29T02:20:11.878Z,5.27
2023-12-29T02:22:44.070Z,5.29
2023-12-29T02:25:17.017Z,5.29
2023-12-29T02:27:55.963Z,5.26
2023-12-29T02:30:36.206Z,5.23
2023-12-29T02:33:12.839Z,5.15
2023-12-29T02:35:47.746Z,5.09
2023-12-29T02:38:19.845Z,5.04
2023-12-29T02:40:52.068Z,4.98
2023-12-29T02:43:24.118Z,4.93
2023-12-29T02:45:56.117Z,4.87
2023-12-29T02:48:28.343Z,4.81
2023-12-29T02:51:00.426Z,4.75
2023-12-29T02:53:33.043Z,4.71
2023-12-29T02:56:05.441Z,4.68
2023-12-29T02:58:37.349Z,4.65
2023-12-29T03:01:09.373Z,4.62
2023-12-29T03:03:42.304Z,4.61
2023-12-29T03:06:14.447Z,4.63
2023-12-29T03:08:46.418Z,4.65
2023-12-29T03:11:18.522Z,4.67
2023-12-29T03:13:50.407Z,4.70
2023-12-29T03:16:22.310Z,4.73
2023-12-29T03:18:54.278Z,4.77
2023-12-29T03:21:26.225Z,4.78
2023-12-29T03:23:58.157Z,4.78
2023-12-29T03:26:30.007Z,4.78
2023-12-29T03:29:02.125Z,4.75
2023-12-29T03:31:36.504Z,4.71
2023-12-29T03:34:09.238Z,4.67
2023-12-29T03:36:41.310Z,4.66
2023-12-29T03:39:13.248Z,4.67
2023-12-29T03:41:45.265Z,4.68
2023-12-29T03:44:18.637Z,4.68
2023-12-29T03:46:51.263Z,4.66
2023-12-29T03:49:23.217Z,4.63
2023-12-29T03:51:55.538Z,4.62
2023-12-29T03:54:27.512Z,4.61
2023-12-29T03:56:59.435Z,4.59
2023-12-29T03:59:31.349Z,4.57
2023-12-29T04:02:04.169Z,4.53
2023-12-29T04:04:38.410Z,4.50
2023-12-29T04:07:10.476Z,4.45
2023-12-29T04:09:42.512Z,4.42
2023-12-29T04:12:14.406Z,4.37
2023-12-29T04:14:47.051Z,4.30
2023-12-29T04:17:18.977Z,4.23
2023-12-29T04:19:50.970Z,4.16
2023-12-29T04:22:22.858Z,4.09
2023-12-29T04:24:54.832Z,4.02
2023-12-29T04:27:26.736Z,3.95
2023-12-29T04:29:58.645Z,3.90
2023-12-29T04:32:30.584Z,3.87
2023-12-29T04:35:02.843Z,3.83
2023-12-29T04:37:34.789Z,3.84
2023-12-29T04:40:08.375Z,3.88
2023-12-29T04:42:40.412Z,3.90
2023-12-29T04:45:13.563Z,3.91
2023-12-29T04:47:45.525Z,3.95
2023-12-29T04:50:17.700Z,3.99
2023-12-29T04:52:49.978Z,4.05
2023-12-29T04:55:22.083Z,4.09
2023-12-29T04:57:54.161Z,4.15
2023-12-29T05:00:28.375Z,4.22
2023-12-29T05:03:00.317Z,4.29
2023-12-29T05:05:32.615Z,4.38
2023-12-29T05:08:05.093Z,4.46
2023-12-29T05:10:37.982Z,4.54
2023-12-29T05:13:09.970Z,4.62
2023-12-29T05:15:42.119Z,4.70
2023-12-29T05:18:16.235Z,4.80
2023-12-29T05:20:48.264Z,4.87
2023-12-29T05:23:20.155Z,4.96
2023-12-29T05:25:52.209Z,5.01
2023-12-29T05:28:24.098Z,5.04
2023-12-29T05:30:56.115Z,5.07
2023-12-29T05:33:28.376Z,5.11
2023-12-29T05:36:00.335Z,5.14
2023-12-29T05:38:33.556Z,5.16
2023-12-29T05:41:06.100Z,5.20
2023-12-29T05:43:38.128Z,5.26
2023-12-29T05:46:14.637Z,5.31
2023-12-29T05:48:46.652Z,5.36
2023-12-29T05:51:18.597Z,5.38
2023-12-29T05:53:50.479Z,5.39
2023-12-29T05:56:22.960Z,5.39
2023-12-29T05:58:57.198Z,5.41
2023-12-29T06:01:29.255Z,5.43
2023-12-29T06:04:01.427Z,5.46
2023-12-29T06:06:33.737Z,5.47
2023-12-29T06:09:05.699Z,5.46
2023-12-29T06:11:40.401Z,5.47
2023-12-29T06:14:15.151Z,5.45
2023-12-29T06:16:47.088Z,5.42
2023-12-29T06:19:19.140Z,5.41
2023-12-29T06:21:53.595Z,5.41
2023-12-29T06:24:30.622Z,5.43
2023-12-29T06:27:02.836Z,5.45
2023-12-29T06:29:34.728Z,5.48
2023-12-29T06:32:07.679Z,5.48
2023-12-29T06:34:40.062Z,5.47
2023-12-29T06:37:12.824Z,5.51
2023-12-29T06:39:45.017Z,5.54
2023-12-29T06:42:17.097Z,5.57
2023-12-29T06:44:49.769Z,5.62
2023-12-29T06:47:21.781Z,5.69
2023-12-29T06:49:53.768Z,5.72
2023-12-29T06:52:26.546Z,5.74
2023-12-29T06:54:58.449Z,5.77
2023-12-29T06:57:30.574Z,5.81
2023-12-29T07:00:02.606Z,5.86
2023-12-29T07:02:34.944Z,5.90
2023-12-29T07:05:10.412Z,5.94
2023-12-29T07:07:42.483Z,5.98
2023-12-29T07:10:16.244Z,6.01
2023-12-29T07:12:48.267Z,6.04
2023-12-29T07:15:23.882Z,6.05
2023-12-29T07:17:56.133Z,6.05
2023-12-29T07:20:28.388Z,6.04
2023-12-29T07:23:00.698Z,6.05
2023-12-29T07:25:32.678Z,6.07
2023-12-29T07:28:05.662Z,6.11
2023-12-29T07:30:37.933Z,6.12
2023-12-29T07:33:10.001Z,6.12
2023-12-29T07:35:42.086Z,6.14
2023-12-29T07:38:14.116Z,6.14
2023-12-29T07:40:46.692Z,6.14
2023-12-29T07:43:18.689Z,6.14
2023-12-29T07:45:51.990Z,6.15
2023-12-29T07:48:24.356Z,6.14
2023-12-29T07:51:07.034Z,6.16
2023-12-29T07:53:39.044Z,6.20
2023-12-29T07:56:12.302Z,6.23
2023-12-29T07:58:46.419Z,6.31
2023-12-29T08:01:19.795Z,6.37
2023-12-29T08:03:51.942Z,6.41
2023-12-29T08:06:26.410Z,6.45
2023-12-29T08:08:59.136Z,6.48
2023-12-29T08:11:31.162Z,6.50
2023-12-29T08:14:03.794Z,6.52
2023-12-29T08:16:39.808Z,6.54
2023-12-29T08:19:12.263Z,6.56
2023-12-29T08:21:44.483Z,6.59
2023-12-29T08:24:18.202Z,6.65
2023-12-29T08:26:50.742Z,6.71
2023-12-29T08:29:22.945Z,6.78
2023-12-29T08:31:54.927Z,6.85
2023-12-29T08:34:28.635Z,6.90
2023-12-29T08:37:03.165Z,6.97
2023-12-29T08:39:35.290Z,7.04
2023-12-29T08:42:07.985Z,7.11
2023-12-29T08:44:39.926Z,7.21
2023-12-29T08:47:11.953Z,7.33
2023-12-29T08:49:44.584Z,7.47
2023-12-29T08:52:17.082Z,7.67
2023-12-29T08:54:49.228Z,7.92
2023-12-29T08:57:21.267Z,8.12
2023-12-29T08:59:53.441Z,8.32
2023-12-29T09:02:25.372Z,8.50
2023-12-29T09:04:57.655Z,8.66
2023-12-29T09:07:31.414Z,8.80
2023-12-29T09:10:04.724Z,8.90
2023-12-29T09:12:36.708Z,8.98
2023-12-29T09:15:10.182Z,9.09
2023-12-29T09:17:43.057Z,9.21
2023-12-29T09:20:16.385Z,9.34
2023-12-29T09:22:49.187Z,9.49
2023-12-29T09:25:21.857Z,9.64
2023-12-29T09:27:54.480Z,9.79
2023-12-29T09:30:26.514Z,9.93
2023-12-29T09:32:58.616Z,10.04
2023-12-29T09:35:30.547Z,10.18
2023-12-29T09:38:03.174Z,10.30
2023-12-29T09:40:35.607Z,10.44
2023-12-29T09:43:08.126Z,10.50
2023-12-29T09:45:43.474Z,10.56
2023-12-29T09:48:20.598Z,10.65
2023-12-29T09:50:54.737Z,10.76
2023-12-29T09:53:27.397Z,10.81
2023-12-29T09:56:02.268Z,10.87
2023-12-29T09:58:35.809Z,10.97
2023-12-29T10:01:08.844Z,11.04
2023-12-29T10:03:41.083Z,11.12
2023-12-29T10:06:18.035Z,11.21
2023-12-29T10:08:52.262Z,11.27
2023-12-29T10:11:26.163Z,11.35
2023-12-29T10:14:01.818Z,11.44
2023-12-29T10:16:43.409Z,11.50
2023-12-29T10:19:25.695Z,11.54
2023-12-29T10:22:10.798Z,11.59
2023-12-29T10:24:45.046Z,11.70
2023-12-29T10:27:17.151Z,11.71
2023-12-29T10:29:49.525Z,11.73
2023-12-29T10:32:21.698Z,11.74
2023-12-29T10:35:10.057Z,11.76
2023-12-29T10:37:42.247Z,11.72
2023-12-29T10:40:21.097Z,11.68
2023-12-29T10:43:02.499Z,11.68
2023-12-29T10:45:35.082Z,11.75
2023-12-29T10:48:08.396Z,11.86
2023-12-29T10:50:47.943Z,11.94
2023-12-29T10:53:20.063Z,12.08
2023-12-29T10:55:52.237Z,12.12
2023-12-29T10:58:26.581Z,12.11
2023-12-29T11:00:59.226Z,12.03
2023-12-29T11:03:33.600Z,11.97
2023-12-29T11:06:06.030Z,11.96
2023-12-29T11:08:39.160Z,11.91
2023-12-29T11:11:11.966Z,11.90
2023-12-29T11:13:46.660Z,11.89
2023-12-29T11:16:22.898Z,11.82
2023-12-29T11:18:58.443Z,11.78
2023-12-29T11:21:32.889Z,11.76
2023-12-29T11:24:04.986Z,11.73
2023-12-29T11:26:40.111Z,11.69
2023-12-29T11:29:13.632Z,11.69
2023-12-29T11:31:47.555Z,11.71
2023-12-29T11:34:26.131Z,11.79
2023-12-29T11:37:08.130Z,11.84
2023-12-29T11:39:51.830Z,11.88
2023-12-29T11:42:32.272Z,11.92
2023-12-29T11:45:33.055Z,11.95
2023-12-29T11:48:05.984Z,11.98
2023-12-29T11:50:39.705Z,12.01
2023-12-29T11:53:32.317Z,12.04
2023-12-29T11:56:16.762Z,12.09
2023-12-29T11:58:48.914Z,12.09
2023-12-29T12:01:37.471Z,12.17
2023-12-29T12:04:41.865Z,12.21
2023-12-29T12:07:18.658Z,12.20
2023-12-29T12:09:51.275Z,12.18
2023-12-29T12:12:44.096Z,12.17
2023-12-29T12:15:36.752Z,12.14
2023-12-29T12:18:15.048Z,12.08
2023-12-29T12:20:54.515Z,12.07
2023-12-29T12:23:32.477Z,12.09
2023-12-29T12:26:06.872Z,12.23
2023-12-29T12:28:41.478Z,12.33
2023-12-29T12:31:17.577Z,12.42
2023-12-29T12:33:58.411Z,12.40
2023-12-29T12:36:30.708Z,12.30
2023-12-29T12:39:02.693Z,12.22
2023-12-29T12:41:35.719Z,12.06
2023-12-29T12:44:13.453Z,11.98
2023-12-29T12:46:53.188Z,11.87
2023-12-29T12:49:27.742Z,11.77
2023-12-29T12:52:00.178Z,11.69
2023-12-29T12:54:34.599Z,11.65
2023-12-29T12:57:07.867Z,11.57
2023-12-29T12:59:40.045Z,11.48
2023-12-29T13:02:13.489Z,11.39
2023-12-29T13:04:46.708Z,11.33
2023-12-29T13:07:21.178Z,11.25
2023-12-29T13:09:54.638Z,11.17
2023-12-29T13:12:26.574Z,11.08
2023-12-29T13:15:09.991Z,11.03
2023-12-29T13:17:51.831Z,10.96
2023-12-29T13:20:24.364Z,10.90
2023-12-29T13:22:56.666Z,10.86
2023-12-29T13:25:30.301Z,10.81
2023-12-29T13:28:04.592Z,10.78
2023-12-29T13:30:39.965Z,10.74
2023-12-29T13:33:17.674Z,10.69
2023-12-29T13:36:01.988Z,10.62
2023-12-29T13:38:48.318Z,10.57
2023-12-29T13:41:22.671Z,10.52
2023-12-29T13:43:57.189Z,10.47
2023-12-29T13:46:29.734Z,10.41
2023-12-29T13:49:02.393Z,10.33
2023-12-29T13:51:36.688Z,10.27
2023-12-29T13:54:09.054Z,10.20
2023-12-29T13:56:41.448Z,10.14
2023-12-29T13:59:14.217Z,10.08
2023-12-29T14:01:47.443Z,10.03
2023-12-29T14:04:21.978Z,9.94
2023-12-29T14:07:04.067Z,9.95
2023-12-29T14:09:38.619Z,9.94
2023-12-29T14:12:11.245Z,9.92
2023-12-29T14:14:43.368Z,9.92
2023-12-29T14:17:24.293Z,9.90
2023-12-29T14:20:04.450Z,9.87
2023-12-29T14:22:36.737Z,9.80
2023-12-29T14:25:10.851Z,9.76
2023-12-29T14:27:43.128Z,9.70
2023-12-29T14:30:24.200Z,9.65
2023-12-29T14:32:59.205Z,9.59
2023-12-29T14:35:31.859Z,9.52
2023-12-29T14:38:05.769Z,9.46
2023-12-29T14:40:37.689Z,9.39
2023-12-29T14:43:09.640Z,9.33
2023-12-29T14:45:42.435Z,9.27
2023-12-29T14:48:14.880Z,9.21
2023-12-29T14:50:47.382Z,9.15
2023-12-29T14:53:21.736Z,9.09
2023-12-29T14:55:56.243Z,9.04
2023-12-29T14:58:28.566Z,9.01
2023-12-29T15:01:01.009Z,9.01
2023-12-29T15:03:33.558Z,9.02
2023-12-29T15:06:09.262Z,9.01
2023-12-29T15:08:41.378Z,9.01
2023-12-29T15:11:16.650Z,9.00
2023-12-29T15:13:48.727Z,8.99
2023-12-29T15:16:23.191Z,8.96
2023-12-29T15:18:55.819Z,8.91
2023-12-29T15:21:27.763Z,8.86
2023-12-29T15:23:59.808Z,8.81
2023-12-29T15:26:31.716Z,8.77
2023-12-29T15:29:03.939Z,8.71
2023-12-29T15:31:36.063Z,8.67
2023-12-29T15:34:08.211Z,8.64
2023-12-29T15:36:40.808Z,8.64
2023-12-29T15:39:12.793Z,8.64
2023-12-29T15:41:46.912Z,8.65
2023-12-29T15:44:18.783Z,8.66
2023-12-29T15:46:51.841Z,8.68
2023-12-29T15:49:28.647Z,8.60
2023-12-29T15:52:01.265Z,8.64
2023-12-29T15:54:34.455Z,8.63
2023-12-29T15:57:09.110Z,8.54
2023-12-29T15:59:41.263Z,8.55
2023-12-29T16:02:13.637Z,8.52
2023-12-29T16:04:45.866Z,8.47
2023-12-29T16:07:20.247Z,8.41
2023-12-29T16:09:52.328Z,8.37
2023-12-29T16:12:26.618Z,8.25
2023-12-29T16:14:58.825Z,8.27
2023-12-29T16:17:30.769Z,8.22
2023-12-29T16:20:02.828Z,8.17
2023-12-29T16:22:35.035Z,8.13
2023-12-29T16:25:09.076Z,8.12
2023-12-29T16:27:45.928Z,8.14
2023-12-29T16:30:18.418Z,8.17
2023-12-29T16:32:52.625Z,8.20
2023-12-29T16:35:27.501Z,8.22
2023-12-29T16:38:01.470Z,8.24
2023-12-29T16:40:35.852Z,8.25
2023-12-29T16:43:08.156Z,8.25
2023-12-29T16:45:41.142Z,8.25
2023-12-29T16:48:13.187Z,8.25
2023-12-29T16:50:47.750Z,8.25
2023-12-29T16:53:19.953Z,8.28
2023-12-29T16:55:52.349Z,8.32
2023-12-29T16:58:24.583Z,8.36
2023-12-29T17:00:57.053Z,8.38
2023-12-29T17:03:31.103Z,8.40
2023-12-29T17:06:03.330Z,8.42
2023-12-29T17:08:37.794Z,8.42
2023-12-29T17:11:10.148Z,8.43
2023-12-29T17:13:42.206Z,8.46
2023-12-29T17:16:16.509Z,8.49
2023-12-29T17:18:51.691Z,8.52
2023-12-29T17:21:25.306Z,8.52
2023-12-29T17:23:57.644Z,8.53
2023-12-29T17:26:29.849Z,8.53
2023-12-29T17:29:04.371Z,8.54
2023-12-29T17:31:36.278Z,8.54
2023-12-29T17:34:10.879Z,8.55
2023-12-29T17:36:43.121Z,8.59
2023-12-29T17:39:15.288Z,8.62
2023-12-29T17:41:47.558Z,8.65
2023-12-29T17:44:22.231Z,8.67
2023-12-29T17:46:57.288Z,8.68
2023-12-29T17:49:30.764Z,8.69
2023-12-29T17:52:03.058Z,8.69
2023-12-29T17:54:35.215Z,8.70
2023-12-29T17:57:09.554Z,8.72
2023-12-29T17:59:41.446Z,8.76
2023-12-29T18:02:13.365Z,8.81
2023-12-29T18:04:45.647Z,8.84
2023-12-29T18:07:18.184Z,8.86
2023-12-29T18:09:50.173Z,8.87
2023-12-29T18:12:22.397Z,8.89
2023-12-29T18:14:54.607Z,8.89
2023-12-29T18:17:28.024Z,8.88
2023-12-29T18:20:00.092Z,8.90
2023-12-29T18:22:32.484Z,8.93
2023-12-29T18:25:05.095Z,8.98
2023-12-29T18:27:38.328Z,9.04
2023-12-29T18:30:12.657Z,9.10
2023-12-29T18:32:45.411Z,9.15
2023-12-29T18:35:17.732Z,9.17
2023-12-29T18:37:49.845Z,9.20
2023-12-29T18:40:21.913Z,9.22
2023-12-29T18:42:54.037Z,9.22
2023-12-29T18:45:28.753Z,9.21
2023-12-29T18:48:01.890Z,9.22
2023-12-29T18:50:36.502Z,9.20
2023-12-29T18:53:09.013Z,9.20
2023-12-29T18:55:45.611Z,9.22
2023-12-29T18:58:18.215Z,9.26
2023-12-29T19:00:53.973Z,9.29
2023-12-29T19:03:26.079Z,9.32
2023-12-29T19:06:00.364Z,9.33
2023-12-29T19:08:32.664Z,9.33
2023-12-29T19:11:05.310Z,9.35
2023-12-29T19:13:42.404Z,9.33
2023-12-29T19:16:22.630Z,9.32
2023-12-29T19:18:54.863Z,9.31
2023-12-29T19:21:29.482Z,9.29
2023-12-29T19:24:02.377Z,9.30
2023-12-29T19:26:34.505Z,9.31
2023-12-29T19:29:06.799Z,9.34
2023-12-29T19:31:41.886Z,9.36
2023-12-29T19:34:14.791Z,9.38
2023-12-29T19:36:46.851Z,9.37
2023-12-29T19:39:23.701Z,9.37
2023-12-29T19:41:55.710Z,9.35
2023-12-29T19:44:28.036Z,9.22
2023-12-29T19:47:00.241Z,9.29
2023-12-29T19:49:34.735Z,9.25
2023-12-29T19:52:08.238Z,9.22
2023-12-29T19:54:40.901Z,9.21
2023-12-29T19:57:13.022Z,9.21
2023-12-29T19:59:47.129Z,9.21
2023-12-29T20:02:19.087Z,9.20
2023-12-29T20:04:52.493Z,9.18
2023-12-29T20:07:28.212Z,9.16
2023-12-29T20:10:00.942Z,9.14
2023-12-29T20:12:33.402Z,9.13
2023-12-29T20:15:06.087Z,9.13
2023-12-29T20:17:39.507Z,9.11
2023-12-29T20:20:13.919Z,9.10
2023-12-29T20:22:46.202Z,9.13
2023-12-29T20:25:21.785Z,9.16
2023-12-29T20:27:56.642Z,9.19
2023-12-29T20:30:28.930Z,9.23
2023-12-29T20:33:01.533Z,9.24
2023-12-29T20:35:34.153Z,9.23
2023-12-29T20:38:11.061Z,9.19
2023-12-29T20:40:43.321Z,9.16
2023-12-29T20:43:15.325Z,9.12
2023-12-29T20:45:47.742Z,9.08
2023-12-29T20:48:19.974Z,9.02
2023-12-29T20:50:55.614Z,8.98
2023-12-29T20:53:31.923Z,8.93
2023-12-29T20:56:04.083Z,8.89
2023-12-29T20:58:36.335Z,8.88
2023-12-29T21:01:09.887Z,8.89
2023-12-29T21:03:42.869Z,8.91
2023-12-29T21:06:19.486Z,8.93
2023-12-29T21:08:51.914Z,8.93
2023-12-29T21:11:26.622Z,8.92
2023-12-29T21:13:58.883Z,8.90
2023-12-29T21:16:31.316Z,8.89
2023-12-29T21:19:03.625Z,8.88
2023-12-29T21:21:41.433Z,8.87
2023-12-29T21:24:13.948Z,8.87
2023-12-29T21:26:48.183Z,8.86
2023-12-29T21:29:20.445Z,8.86
2023-12-29T21:31:52.519Z,8.88
2023-12-29T21:34:24.931Z,8.91
2023-12-29T21:36:59.158Z,8.94
2023-12-29T21:39:33.440Z,8.96
2023-12-29T21:42:05.925Z,8.96
2023-12-29T21:44:37.832Z,8.95
2023-12-29T21:47:10.741Z,8.93
2023-12-29T21:49:43.138Z,8.91
2023-12-29T21:52:15.329Z,8.89
2023-12-29T21:54:47.376Z,8.91
2023-12-29T21:57:19.755Z,8.95
2023-12-29T21:59:51.703Z,8.98
2023-12-29T22:02:23.629Z,9.03
2023-12-29T22:04:58.171Z,9.08
2023-12-29T22:07:30.295Z,9.09
2023-12-29T22:10:02.290Z,9.08
2023-12-29T22:12:34.797Z,9.08
2023-12-29T22:15:08.253Z,9.08
2023-12-29T22:17:40.531Z,9.07
2023-12-29T22:20:13.983Z,9.01
2023-12-29T22:22:45.920Z,9.10
2023-12-29T22:25:18.420Z,9.12
2023-12-29T22:27:50.992Z,9.14
2023-12-29T22:30:25.418Z,9.14
2023-12-29T22:32:57.410Z,9.14
2023-12-29T22:35:29.616Z,9.13
2023-12-29T22:38:01.967Z,9.11
2023-12-29T22:40:34.785Z,9.09
2023-12-29T22:43:07.160Z,9.08
2023-12-29T22:45:39.441Z,9.07
2023-12-29T22:48:12.171Z,9.07
2023-12-29T22:50:44.131Z,9.09
2023-12-29T22:53:16.698Z,9.13
2023-12-29T22:55:51.274Z,9.16
2023-12-29T22:58:23.894Z,9.19
2023-12-29T23:00:56.239Z,9.21
2023-12-29T23:03:28.220Z,9.21
2023-12-29T23:06:00.223Z,9.19
2023-12-29T23:08:33.003Z,9.17
2023-12-29T23:11:05.626Z,9.13
2023-12-29T23:13:39.818Z,9.10
2023-12-29T23:16:11.866Z,9.06
2023-12-29T23:18:45.266Z,9.02
2023-12-29T23:21:19.626Z,9.00
2023-12-29T23:23:51.544Z,9.01
2023-12-29T23:26:25.464Z,9.02
2023-12-29T23:28:57.599Z,9.03
2023-12-29T23:31:29.690Z,9.06
2023-12-29T23:34:01.697Z,9.06
2023-12-29T23:36:33.685Z,9.04
2023-12-29T23:39:05.621Z,9.03
2023-12-29T23:41:37.611Z,9.02
2023-12-29T23:44:11.982Z,9.00
2023-12-29T23:46:44.129Z,8.97
2023-12-29T23:49:16.847Z,8.95
2023-12-29T23:51:48.990Z,8.95
2023-12-29T23:54:21.064Z,8.96
2023-12-29T23:56:53.604Z,8.98
2023-12-29T23:59:25.922Z,8.99
